Flight Track Log - Related Links

Times and Time Zones

All times are in EDT time to prevent confusion due to time zone crossing. See the SWA59 flight status page for this flight to view local times or setup timezone preferences in your user account.

Time Position Orientation Groundspeed Altitude Reporting Facility
EDT Latitude Longitude Course Direction KTS MPH feet Rate Location/Type
Mon 08:13:58 PM 38.6942 -90.2258 238° Southwest 201 231 3,800  Level FAA TRACON SMA TRACON (SMA)
Mon 08:14:19 PM 38.6769 -90.2261 181° South 211 243 4,600 3,000 Climbing FAA TRACON SMA TRACON (SMA)
Mon 08:14:38 PM 38.6569 -90.2383 206° Southwest 209 241 5,800 2,923 Climbing FAA TRACON SMA TRACON (SMA)
Mon 08:14:58 PM 38.6428 -90.2547 222° Southwest 220 253 6,500 2,195 Climbing FAA TRACON SMA TRACON (SMA)
Mon 08:15:19 PM 38.6300 -90.2750 231° Southwest 235 270 7,300 3,366 Climbing FAA TRACON SMA TRACON (SMA)
Mon 08:15:39 PM 38.6131 -90.3019 231° Southwest 251 289 8,800 4,050 Climbing FAA TRACON SMA TRACON (SMA)
Mon 08:15:59 PM 38.5989 -90.3225 229° Southwest 253 291 10,000 3,000 Climbing FAA TRACON SMA TRACON (SMA)
Mon 08:16:19 PM 38.5836 -90.3447 229° Southwest 263 303 10,800 2,000 Climbing FAA TRACON SMA TRACON (SMA)
Mon 08:16:38 PM 38.5625 -90.3753 229° Southwest 291 335 11,300 2,154 Climbing FAA TRACON SMA TRACON (SMA)
Mon 08:16:58 PM 38.5439 -90.4014 228° Southwest 319 367 12,200 2,780 Climbing FAA TRACON SMA TRACON (SMA)
Mon 08:17:19 PM 38.5250 -90.4289 229° Southwest 332 382 13,200 3,450 Climbing FAA TRACON SMA TRACON (SMA)
Mon 08:17:38 PM 38.5006 -90.4631 228° Southwest 341 392 14,500 3,538 Climbing FAA TRACON SMA TRACON (SMA)
Mon 08:17:58 PM 38.4808 -90.4919 229° Southwest 347 399 15,500 2,927 Climbing FAA TRACON SMA TRACON (SMA)
Mon 08:18:19 PM 38.4611 -90.5214 229° Southwest 353 406 16,500 3,073 Climbing FAA TRACON SMA TRACON (SMA)
Mon 08:18:39 PM 38.4350 -90.5572 227° Southwest 359 413 17,600 3,150 Climbing FAA TRACON SMA TRACON (SMA)
Mon 08:18:59 PM 38.4139 -90.5872 228° Southwest 367 422 18,600 2,850 Climbing FAA TRACON SMA TRACON (SMA)
Mon 08:19:00 PM 38.3885 -90.7730 238° Southwest  Level FlightAware Approximate
Mon 08:19:19 PM 38.3931 -90.6178 229° Southwest 370 426 19,500  Level FAA TRACON SMA TRACON (SMA)
Mon 08:19:38 PM 38.3717 -90.6478 228° Southwest 371 427 20,500 3,385 Climbing FAA TRACON SMA TRACON (SMA)
Mon 08:19:58 PM 38.3456 -90.6861 229° Southwest 373 429 21,700 2,927 Climbing FAA TRACON SMA TRACON (SMA)
Mon 08:20:19 PM 38.3233 -90.7161 227° Southwest 376 433 22,500 2,488 Climbing FAA TRACON SMA TRACON (SMA)
Mon 08:20:39 PM 38.2969 -90.7556 230° Southwest 380 437 23,400 2,308 Climbing FAA TRACON SMA TRACON (SMA)
Mon 08:20:58 PM 38.2753 -90.7867 228° Southwest 384 442 24,000 2,100 Climbing FAA TRACON SMA TRACON (SMA)
Mon 08:21:19 PM 38.2522 -90.8175 226° Southwest 387 445 24,800 2,488 Climbing FAA TRACON SMA TRACON (SMA)
Mon 08:21:39 PM 38.2244 -90.8575 229° Southwest 391 450 25,700 2,308 Climbing FAA TRACON SMA TRACON (SMA)
Mon 08:21:58 PM 38.2017 -90.8886 227° Southwest 392 451 26,300 1,950 Climbing FAA TRACON SMA TRACON (SMA)
Mon 08:22:19 PM 38.1797 -90.9214 230° Southwest 395 455 27,000 2,049 Climbing FAA TRACON SMA TRACON (SMA)
Mon 08:22:39 PM 38.1514 -90.9619 228° Southwest 397 457 27,700 1,902 Climbing FAA TRACON SMA TRACON (SMA)
Mon 08:23:00 PM 38.1275 -90.9928 225° Southwest 399 459 28,300 1,610 Climbing FAA TRACON SMA TRACON (SMA)
Mon 08:23:20 PM 38.1053 -91.0272 231° Southwest 406 467 28,800 1,579 Climbing FAA TRACON SMA TRACON (SMA)
Mon 08:23:38 PM 38.0811 -91.0594 226° Southwest 408 470 29,300 1,895 Climbing FAA TRACON SMA TRACON (SMA)
Mon 08:23:58 PM 38.0514 -91.1008 228° Southwest 413 475 30,000 2,195 Climbing FAA TRACON SMA TRACON (SMA)
Mon 08:24:19 PM 38.0289 -91.1356 231° Southwest 414 476 30,800 2,488 Climbing FAA TRACON SMA TRACON (SMA)
Mon 08:24:39 PM 38.0000 -91.1775 229° Southwest 411 473 31,700 1,971 Climbing FAA TRACON SMA TRACON (SMA)
Mon 08:25:29 PM 37.9486 -91.2944 241° Southwest 406 467 33,100 1,761 Climbing Kansas City Center
Mon 08:26:28 PM 37.8742 -91.3997 228° Southwest 400 460 34,900 1,672 Climbing Kansas City Center
Mon 08:27:31 PM 37.7981 -91.5019 227° Southwest 397 457 36,500 1,403 Climbing Kansas City Center
Mon 08:28:32 PM 37.7239 -91.6042 227° Southwest 394 453 37,800 934 Climbing Kansas City Center
Mon 08:29:33 PM 37.6489 -91.7086 228° Southwest 394 453 38,400 738 Climbing Kansas City Center
Mon 08:30:34 PM 37.5703 -91.8131 226° Southwest 399 459 39,300 768 Climbing Kansas City Center
Mon 08:31:38 PM 37.4839 -91.9142 223° Southwest 409 471 40,000 339 Climbing Kansas City Center
Mon 08:32:38 PM 37.3983 -92.0125 222° Southwest 413 475 40,000  Level Kansas City Center
Mon 08:33:40 PM 37.2969 -92.1339 224° Southwest 414 476 40,000  Level Kansas City Center
Mon 08:34:40 PM 37.2131 -92.2303 222° Southwest 409 471 40,000  Level Kansas City Center
Mon 08:35:41 PM 37.1294 -92.3267 223° Southwest 407 468 40,000  Level Kansas City Center
Mon 08:36:45 PM 37.0464 -92.4228 223° Southwest 404 465 40,000  Level Kansas City Center
Mon 08:37:44 PM 36.9658 -92.5156 223° Southwest 396 456 40,000  Level Kansas City Center
Mon 08:38:45 PM 36.8856 -92.6069 222° Southwest 391 450 40,000  Level Kansas City Center
Mon 08:39:46 PM 36.8036 -92.6994 222° Southwest 399 459 40,000  Level Memphis Center
Mon 08:40:46 PM 36.7228 -92.7928 223° Southwest 399 459 40,000  Level Memphis Center
Mon 08:41:46 PM 36.6353 -92.8936 223° Southwest 399 459 40,000  Level Memphis Center
Mon 08:42:46 PM 36.5500 -92.9864 221° Southwest 399 459 40,000  Level Memphis Center
Mon 08:43:46 PM 36.4667 -93.0819 223° Southwest 399 459 40,000  Level Memphis Center
Mon 08:44:46 PM 36.3833 -93.1769 223° Southwest 399 459 40,000  Level Memphis Center
Mon 08:45:46 PM 36.3019 -93.2644 221° Southwest 399 459 40,000  Level Memphis Center
Mon 08:46:46 PM 36.2164 -93.3617 223° Southwest 399 459 40,000  Level Memphis Center
Mon 08:47:46 PM 36.1306 -93.4561 222° Southwest 404 465 40,000  Level Memphis Center
Mon 08:48:46 PM 36.0556 -93.5406 222° Southwest 410 472 40,000  Level Memphis Center
Mon 08:49:46 PM 35.9697 -93.6347 222° Southwest 410 472 40,000  Level Memphis Center
Mon 08:50:46 PM 35.8836 -93.7311 222° Southwest 410 472 40,000  Level Memphis Center
Mon 08:51:46 PM 35.7978 -93.8250 222° Southwest 410 472 40,000  Level Memphis Center
Mon 08:52:46 PM 35.7094 -93.9211 221° Southwest 415 478 40,000  Level Memphis Center
Mon 08:53:46 PM 35.6233 -94.0144 221° Southwest 415 478 40,000  Level Memphis Center
Mon 08:54:46 PM 35.5414 -94.1078 223° Southwest 415 478 40,000  Level Memphis Center
Mon 08:55:46 PM 35.4508 -94.2031 221° Southwest 420 483 40,000  Level Memphis Center
Mon 08:56:46 PM 35.3667 -94.2958 222° Southwest 420 483 40,000  Level Memphis Center
Mon 08:57:46 PM 35.2781 -94.3908 221° Southwest 420 483 40,000  Level Memphis Center
Mon 09:00:07 PM 35.0686 -94.6181 222° Southwest 414 476 40,000  Level Fort Worth Center
Mon 09:01:07 PM 34.9789 -94.7175 222° Southwest 420 483 40,000 -300 Level Fort Worth Center
Mon 09:02:07 PM 34.8933 -94.8086 221° Southwest 420 483 39,400 -750 Descending Fort Worth Center
Mon 09:03:07 PM 34.8056 -94.9075 223° Southwest 431 496 38,500 -950 Descending Fort Worth Center
Mon 09:04:07 PM 34.7197 -94.9983 221° Southwest 431 496 37,500 -1,000 Descending Fort Worth Center
Mon 09:05:07 PM 34.6358 -95.0892 222° Southwest 418 481 36,500 -950 Descending Fort Worth Center
Mon 09:06:07 PM 34.5500 -95.1797 221° Southwest 418 481 35,600 -950 Descending Fort Worth Center
Mon 09:07:07 PM 34.4639 -95.2750 222° Southwest 418 481 34,600 -2,550 Descending Fort Worth Center
Mon 09:08:07 PM 34.3653 -95.3606 216° Southwest 429 494 30,500 -4,050 Descending Fort Worth Center
Mon 09:09:07 PM 34.2686 -95.4433 215° Southwest 437 503 26,500 -3,250 Descending Fort Worth Center
Mon 09:10:07 PM 34.1758 -95.5258 216° Southwest 432 497 24,000 -1,300 Descending Fort Worth Center
Mon 09:11:07 PM 34.0956 -95.5978 217° Southwest 415 478 23,900 -550 Descending Fort Worth Center
Mon 09:12:07 PM 34.0194 -95.6744 220° Southwest 383 441 22,900 -1,008 Descending Fort Worth Center
Mon 09:13:06 PM 33.9306 -95.7439 213° Southwest 378 435 21,900 -1,050 Descending Fort Worth Center
Mon 09:14:07 PM 33.8311 -95.7831 198° South 372 428 20,800 -1,041 Descending Fort Worth Center
Mon 09:15:07 PM 33.7250 -95.8175 195° South 386 444 19,800 -1,000 Descending Fort Worth Center
Mon 09:16:07 PM 33.6192 -95.8594 198° South 379 436 18,800 -1,150 Descending Fort Worth Center
Mon 09:17:07 PM 33.5383 -95.9108 208° Southwest 364 419 17,500 -1,700 Descending Fort Worth Center
Mon 09:18:07 PM 33.4767 -96.0039 232° Southwest 338 389 15,400 -2,000 Descending Fort Worth Center
Mon 09:19:07 PM 33.4256 -96.0819 232° Southwest 333 383 13,500 -2,000 Descending Fort Worth Center
Mon 09:20:07 PM 33.3658 -96.1747 232° Southwest 327 376 11,400 -1,650 Descending Fort Worth Center
Mon 09:21:07 PM 33.3206 -96.2450 232° Southwest 312 359 10,200 -1,200 Descending Fort Worth Center
Mon 09:22:07 PM 33.2711 -96.3228 233° Southwest 285 328 9,000 -1,300 Descending Fort Worth Center
Mon 09:23:07 PM 33.2319 -96.3853 233° Southwest 274 315 7,600 -1,462 Descending Fort Worth Center
Mon 09:24:06 PM 33.1847 -96.4603 233° Southwest 269 310 6,100 -1,300 Descending Fort Worth Center
Mon 09:25:07 PM 33.1494 -96.5178 234° Southwest 257 296 5,000 -1,041 Descending Fort Worth Center
Mon 09:26:07 PM 33.1103 -96.5825 234° Southwest 243 280 4,000 -500 Descending Fort Worth Center
Mon 09:27:07 PM 33.0669 -96.6550 235° Southwest 243 280 4,000 -356 Level Fort Worth Center
Mon 09:28:05 PM 33.0333 -96.7167 237° Southwest 245 282 3,300 -504 Descending Dallas / Fort Worth TRACON
Mon 09:29:06 PM 32.9833 -96.7833 228° Southwest 220 253 3,000 -189 Descending Dallas / Fort Worth TRACON
Mon 09:30:12 PM 32.9500 -96.8333 232° Southwest 210 242 2,900 -500 Descending Dallas / Fort Worth TRACON
Mon 09:31:06 PM 32.9167 -96.8833 232° Southwest 194 223 2,000 -789 Descending Dallas / Fort Worth TRACON
Mon 09:32:06 PM 32.8833 -96.9000 203° Southwest 128 147 1,400 -545 Descending Dallas / Fort Worth TRACON
Mon 09:33:07 PM 32.8667 -96.8833 140° Southeast 127 146 900 -492 Descending Dallas / Fort Worth TRACON
Mon 09:36:00 PM 32.8471 -96.8518 228° Southwest  Level Estimated

Login

Don't have an account? Register now (free) for customized features, flight alerts, and more!